Time;durP1;ratioP1;P1;durP2;ratioP2;P2;SDS_P1;SDS_P2;PMS_P1;PMS_P2;Temp;Humidity;BMP_temperature;BMP_pressure;BME280_temperature;BME280_humidity;BME280_pressure;Samples;Min_cycle;Max_cycle;Signal;HPM_P1;HPM_P2
2023/05/17 00:01:30;;;;;;;9.68;4.82;;;;;;;;;;5021688;28;20021;-76
2023/05/17 00:03:55;;;;;;;10.30;4.80;;;;;;;;;;5021669;28;20120;-76
2023/05/17 00:06:21;;;;;;;8.77;4.43;;;;;;;;;;5021421;28;20032;-76
2023/05/17 00:08:46;;;;;;;15.10;4.90;;;;;;;;;;5021988;28;20037;-77
2023/05/17 00:11:12;;;;;;;7.38;4.78;;;;;;;;;;5021939;28;20043;-76
2023/05/17 00:13:38;;;;;;;13.60;5.28;;;;;;;;;;5021491;28;20391;-75
2023/05/17 00:16:03;;;;;;;11.23;5.15;;;;;;;;;;5021644;28;20104;-76
2023/05/17 00:18:29;;;;;;;13.00;5.30;;;;;;;;;;5021268;28;20103;-76
2023/05/17 00:20:54;;;;;;;15.63;5.68;;;;;;;;;;5021390;28;20565;-76
2023/05/17 00:23:19;;;;;;;7.57;5.40;;;;;;;;;;5020924;28;20109;-77
2023/05/17 00:25:45;;;;;;;13.00;5.10;;;;;;;;;;5021561;28;20388;-78
2023/05/17 00:28:10;;;;;;;15.90;6.43;;;;;;;;;;5020785;28;20473;-77
2023/05/17 00:30:36;;;;;;;9.38;5.43;;;;;;;;;;5021077;28;20028;-77
2023/05/17 00:33:01;;;;;;;12.88;5.90;;;;;;;;;;5021750;28;20025;-77
2023/05/17 00:35:26;;;;;;;13.18;5.80;;;;;;;;;;5020964;28;20101;-76
2023/05/17 00:37:52;;;;;;;13.10;6.22;;;;;;;;;;5021486;28;20029;-77
2023/05/17 00:40:17;;;;;;;12.55;6.60;;;;;;;;;;5020975;28;20013;-77
2023/05/17 00:42:42;;;;;;;11.52;7.43;;;;;;;;;;5021645;28;20163;-78
2023/05/17 00:45:08;;;;;;;12.30;6.82;;;;;;;;;;5019837;28;20096;-77
2023/05/17 00:47:33;;;;;;;11.77;6.82;;;;;;;;;;5021127;28;20041;-78
2023/05/17 00:49:58;;;;;;;12.95;7.60;;;;;;;;;;5021083;28;20084;-75
2023/05/17 00:52:24;;;;;;;17.52;9.02;;;;;;;;;;5020617;28;20545;-77
2023/05/17 00:54:50;;;;;;;13.98;8.02;;;;;;;;;;5021318;28;20025;-78
2023/05/17 00:57:15;;;;;;;11.70;8.77;;;;;;;;;;5020555;28;20029;-78
2023/05/17 00:59:41;;;;;;;15.68;10.32;;;;;;;;;;5021356;28;20018;-78
2023/05/17 01:02:06;;;;;;;18.40;12.82;;;;;;;;;;5021105;28;20014;-77
2023/05/17 01:04:32;;;;;;;18.95;11.88;;;;;;;;;;5021217;28;20048;-76
2023/05/17 01:06:57;;;;;;;14.23;12.27;;;;;;;;;;5020309;28;20066;-76
2023/05/17 01:09:23;;;;;;;17.67;12.80;;;;;;;;;;5020373;28;20029;-76
2023/05/17 01:12:03;;;;;;;14.98;13.18;;;;;;;;;;5020699;28;20059;-77
2023/05/17 01:14:35;;;;;;;26.25;15.23;;;;;;;;;;5035670;28;20141;-76
2023/05/17 01:17:03;;;;;;;20.45;15.65;;;;;;;;;;5021669;28;20601;-77
2023/05/17 01:19:43;;;;;;;21.88;15.05;;;;;;;;;;5020024;28;20025;-77
2023/05/17 01:22:19;;;;;;;22.15;15.00;;;;;;;;;;5020345;28;20053;-76
2023/05/17 01:24:47;;;;;;;19.48;14.57;;;;;;;;;;5020463;28;20670;-76
2023/05/17 01:27:14;;;;;;;23.67;16.00;;;;;;;;;;5019886;28;20538;-76
2023/05/17 01:29:41;;;;;;;23.73;16.05;;;;;;;;;;5020803;28;20017;-77
2023/05/17 01:32:07;;;;;;;21.90;15.43;;;;;;;;;;5021799;28;20117;-78
2023/05/17 01:34:33;;;;;;;22.85;16.33;;;;;;;;;;5020046;28;20457;-75
2023/05/17 01:36:59;;;;;;;21.33;15.90;;;;;;;;;;5019852;28;20032;-76
2023/05/17 01:39:24;;;;;;;24.23;16.83;;;;;;;;;;5020224;28;20025;-75
2023/05/17 01:41:55;;;;;;;20.67;15.88;;;;;;;;;;5020333;28;20111;-76
2023/05/17 01:44:28;;;;;;;22.33;15.88;;;;;;;;;;5020610;28;20423;-75
2023/05/17 01:46:59;;;;;;;24.55;15.90;;;;;;;;;;5020408;28;20482;-75
2023/05/17 01:49:36;;;;;;;23.95;16.10;;;;;;;;;;5019436;28;20087;-77
2023/05/17 01:52:12;;;;;;;23.88;16.25;;;;;;;;;;5019864;28;20025;-77
2023/05/17 01:54:44;;;;;;;21.95;15.65;;;;;;;;;;5019066;28;20021;-76
2023/05/17 01:57:10;;;;;;;21.20;15.05;;;;;;;;;;5019832;28;20021;-76
2023/05/17 01:59:37;;;;;;;22.60;15.48;;;;;;;;;;5019570;28;20028;-76
2023/05/17 02:02:07;;;;;;;20.15;15.68;;;;;;;;;;5019565;28;20041;-76
2023/05/17 02:04:33;;;;;;;24.20;15.48;;;;;;;;;;5020684;28;20086;-76
2023/05/17 02:06:58;;;;;;;19.55;15.73;;;;;;;;;;5019135;28;20021;-77
2023/05/17 02:09:23;;;;;;;22.63;16.17;;;;;;;;;;5019514;28;20040;-76
2023/05/17 02:11:48;;;;;;;22.88;15.20;;;;;;;;;;5019379;28;20018;-77
2023/05/17 02:14:14;;;;;;;19.13;14.88;;;;;;;;;;5020332;28;20019;-76
2023/05/17 02:16:39;;;;;;;26.10;16.77;;;;;;;;;;5019731;28;20059;-77
2023/05/17 02:19:07;;;;;;;20.30;15.13;;;;;;;;;;5019176;28;20029;-77
2023/05/17 02:21:33;;;;;;;22.15;16.02;;;;;;;;;;5019854;28;20025;-76
2023/05/17 02:23:58;;;;;;;21.77;16.02;;;;;;;;;;5019154;28;20048;-76
2023/05/17 02:26:23;;;;;;;24.45;17.55;;;;;;;;;;5019647;28;20132;-76
2023/05/17 02:28:49;;;;;;;21.83;15.55;;;;;;;;;;5018554;28;20419;-75
2023/05/17 02:31:14;;;;;;;23.27;16.02;;;;;;;;;;5019459;28;20018;-76
2023/05/17 02:33:39;;;;;;;18.17;16.05;;;;;;;;;;5018939;28;20037;-76
2023/05/17 02:36:05;;;;;;;18.90;16.88;;;;;;;;;;5019152;28;20021;-76
2023/05/17 02:38:31;;;;;;;21.88;16.65;;;;;;;;;;5019582;28;20902;-75
2023/05/17 02:40:56;;;;;;;20.00;15.98;;;;;;;;;;5018958;28;20013;-75
2023/05/17 02:43:21;;;;;;;22.43;14.33;;;;;;;;;;5019835;28;20551;-76
2023/05/17 02:45:47;;;;;;;17.65;15.80;;;;;;;;;;5018864;28;20260;-75
2023/05/17 02:48:12;;;;;;;27.10;15.95;;;;;;;;;;5019394;28;20036;-76
2023/05/17 02:50:37;;;;;;;24.07;15.73;;;;;;;;;;5014962;28;20551;-76
2023/05/17 02:53:03;;;;;;;17.85;15.25;;;;;;;;;;5016251;28;20792;-75
2023/05/17 02:55:28;;;;;;;20.75;16.15;;;;;;;;;;5019505;28;20009;-76
2023/05/17 02:57:53;;;;;;;19.23;17.05;;;;;;;;;;5020053;28;20022;-76
2023/05/17 03:00:19;;;;;;;21.00;16.23;;;;;;;;;;5021492;28;20033;-76
2023/05/17 03:02:44;;;;;;;18.17;15.90;;;;;;;;;;5018772;28;20519;-77
2023/05/17 03:05:09;;;;;;;22.13;17.40;;;;;;;;;;5015758;28;20030;-76
2023/05/17 03:07:35;;;;;;;21.42;17.02;;;;;;;;;;5018895;28;20030;-76
2023/05/17 03:10:01;;;;;;;22.10;16.83;;;;;;;;;;5022383;28;20436;-76
2023/05/17 03:12:26;;;;;;;21.38;17.55;;;;;;;;;;5022433;28;20025;-76
2023/05/17 03:14:51;;;;;;;20.15;17.75;;;;;;;;;;5022949;28;20479;-76
2023/05/17 03:17:16;;;;;;;23.73;18.33;;;;;;;;;;5022753;28;20509;-76
2023/05/17 03:19:42;;;;;;;23.20;17.55;;;;;;;;;;5023174;28;20108;-76
2023/05/17 03:22:07;;;;;;;26.05;16.95;;;;;;;;;;5024418;28;20032;-76
2023/05/17 03:24:32;;;;;;;29.23;17.30;;;;;;;;;;5023670;28;20515;-76
2023/05/17 03:26:57;;;;;;;22.42;17.52;;;;;;;;;;5023696;28;20079;-76
2023/05/17 03:29:23;;;;;;;20.40;16.80;;;;;;;;;;5022877;28;20025;-76
2023/05/17 03:31:48;;;;;;;30.30;19.27;;;;;;;;;;5022888;28;20750;-76
2023/05/17 03:34:13;;;;;;;22.00;17.60;;;;;;;;;;5022385;28;20494;-76
2023/05/17 03:36:39;;;;;;;22.02;18.60;;;;;;;;;;5022494;28;20036;-76
2023/05/17 03:39:04;;;;;;;21.00;18.75;;;;;;;;;;5022711;28;20458;-76
2023/05/17 03:41:30;;;;;;;25.00;18.80;;;;;;;;;;5022334;28;20103;-76
2023/05/17 03:43:56;;;;;;;20.13;18.08;;;;;;;;;;5022500;28;20503;-76
2023/05/17 03:46:21;;;;;;;24.35;19.13;;;;;;;;;;5021924;28;20054;-76
2023/05/17 03:48:46;;;;;;;23.98;19.88;;;;;;;;;;5021975;28;20621;-76
2023/05/17 03:51:12;;;;;;;27.45;19.88;;;;;;;;;;5021551;28;20032;-76
2023/05/17 03:53:41;;;;;;;27.88;19.60;;;;;;;;;;5022069;28;20091;-76
2023/05/17 03:56:07;;;;;;;24.05;20.65;;;;;;;;;;5019128;28;20503;-76
2023/05/17 03:58:32;;;;;;;23.40;20.55;;;;;;;;;;5020897;28;20032;-76
2023/05/17 04:00:58;;;;;;;25.98;21.02;;;;;;;;;;5021720;28;20033;-76
2023/05/17 04:03:23;;;;;;;27.63;21.65;;;;;;;;;;5021410;28;20116;-76
2023/05/17 04:05:49;;;;;;;26.88;20.25;;;;;;;;;;5022809;28;20033;-76
2023/05/17 04:08:14;;;;;;;27.50;20.77;;;;;;;;;;5021332;28;20570;-76
2023/05/17 04:10:41;;;;;;;27.35;21.20;;;;;;;;;;5021853;28;20026;-76
2023/05/17 04:13:07;;;;;;;33.60;22.27;;;;;;;;;;5021466;28;20682;-76
2023/05/17 04:15:32;;;;;;;31.38;22.75;;;;;;;;;;5019050;28;20026;-76
2023/05/17 04:17:57;;;;;;;33.15;22.17;;;;;;;;;;5020766;28;20025;-77
2023/05/17 04:20:23;;;;;;;30.55;22.05;;;;;;;;;;5020451;28;20063;-75
2023/05/17 04:22:48;;;;;;;29.77;23.17;;;;;;;;;;5018349;28;20502;-75
2023/05/17 04:25:13;;;;;;;37.70;23.27;;;;;;;;;;5018219;28;20676;-76
2023/05/17 04:27:39;;;;;;;30.02;21.30;;;;;;;;;;5018093;28;20081;-76
2023/05/17 04:30:05;;;;;;;36.83;23.10;;;;;;;;;;5015380;28;20033;-75
2023/05/17 04:32:32;;;;;;;30.02;22.80;;;;;;;;;;5016460;28;20048;-75
2023/05/17 04:34:58;;;;;;;29.13;23.05;;;;;;;;;;5015847;28;20026;-76
2023/05/17 04:37:23;;;;;;;30.63;21.45;;;;;;;;;;5018981;28;20044;-76
2023/05/17 04:39:48;;;;;;;26.45;21.50;;;;;;;;;;5017262;28;20026;-76
2023/05/17 04:42:14;;;;;;;30.45;22.23;;;;;;;;;;5016501;28;20145;-76
2023/05/17 04:44:39;;;;;;;30.50;21.27;;;;;;;;;;5015330;28;20559;-77
2023/05/17 04:47:04;;;;;;;29.52;20.05;;;;;;;;;;5018643;28;20518;-76
2023/05/17 04:49:30;;;;;;;34.47;21.90;;;;;;;;;;5019375;28;20487;-76
2023/05/17 04:51:55;;;;;;;29.38;20.48;;;;;;;;;;5018583;28;20037;-76
2023/05/17 04:54:21;;;;;;;30.48;21.40;;;;;;;;;;5019536;28;20045;-76
2023/05/17 04:56:46;;;;;;;33.72;21.00;;;;;;;;;;5019432;28;20017;-79
2023/05/17 04:59:11;;;;;;;28.70;22.33;;;;;;;;;;5018923;28;20021;-76
2023/05/17 05:01:36;;;;;;;26.27;21.42;;;;;;;;;;5019519;28;20374;-76
2023/05/17 05:04:05;;;;;;;34.58;21.88;;;;;;;;;;5018263;28;20026;-75
2023/05/17 05:06:31;;;;;;;29.48;21.05;;;;;;;;;;5019683;28;20033;-75
2023/05/17 05:08:57;;;;;;;39.45;22.83;;;;;;;;;;5018232;28;20423;-75
2023/05/17 05:11:22;;;;;;;39.83;24.02;;;;;;;;;;5019650;28;20025;-75
2023/05/17 05:13:47;;;;;;;45.15;24.67;;;;;;;;;;5018599;28;20760;-77
2023/05/17 05:16:12;;;;;;;38.72;23.88;;;;;;;;;;5018691;28;20216;-76
2023/05/17 05:18:38;;;;;;;35.92;25.63;;;;;;;;;;5018910;28;20033;-76
2023/05/17 05:21:03;;;;;;;39.28;24.65;;;;;;;;;;5018374;28;20025;-76
2023/05/17 05:23:28;;;;;;;36.08;24.15;;;;;;;;;;5018814;28;20179;-76
2023/05/17 05:25:54;;;;;;;36.72;24.70;;;;;;;;;;5018315;28;20027;-76
2023/05/17 05:28:19;;;;;;;40.80;25.02;;;;;;;;;;5018741;28;20053;-77
2023/05/17 05:30:44;;;;;;;36.58;24.58;;;;;;;;;;5018005;28;20028;-76
2023/05/17 05:33:10;;;;;;;38.35;23.98;;;;;;;;;;5018409;28;20025;-77
2023/05/17 05:35:35;;;;;;;39.00;24.90;;;;;;;;;;5018505;28;20009;-77
2023/05/17 05:38:00;;;;;;;37.92;23.92;;;;;;;;;;5018411;28;20044;-75
2023/05/17 05:40:26;;;;;;;40.58;25.45;;;;;;;;;;5018393;28;20025;-77
2023/05/17 05:42:51;;;;;;;42.30;24.58;;;;;;;;;;5018063;28;20070;-76
2023/05/17 05:45:17;;;;;;;36.10;22.80;;;;;;;;;;5017757;28;20095;-76
2023/05/17 05:47:42;;;;;;;36.10;23.83;;;;;;;;;;5044606;28;20386;-76
2023/05/17 05:50:07;;;;;;;39.65;24.05;;;;;;;;;;5018110;28;20488;-76
2023/05/17 05:52:33;;;;;;;41.15;25.00;;;;;;;;;;5011038;28;20028;-77
2023/05/17 05:54:58;;;;;;;35.90;23.23;;;;;;;;;;5018545;28;20021;-77
2023/05/17 05:57:24;;;;;;;36.67;22.73;;;;;;;;;;5009643;28;20030;-79
2023/05/17 05:59:49;;;;;;;34.53;22.73;;;;;;;;;;5011928;28;20029;-76
2023/05/17 06:02:16;;;;;;;34.30;22.23;;;;;;;;;;5012879;28;20550;-77
2023/05/17 06:04:41;;;;;;;40.25;23.65;;;;;;;;;;5016161;28;20511;-77
2023/05/17 06:07:06;;;;;;;34.88;23.13;;;;;;;;;;5010694;28;20056;-76
2023/05/17 06:09:32;;;;;;;35.75;23.42;;;;;;;;;;5017759;28;20048;-76
2023/05/17 06:11:57;;;;;;;39.47;21.60;;;;;;;;;;5019558;28;20053;-76
2023/05/17 06:14:22;;;;;;;33.65;22.98;;;;;;;;;;5014761;28;20121;-74
2023/05/17 06:16:47;;;;;;;32.22;22.38;;;;;;;;;;5012135;28;20040;-77
2023/05/17 06:19:13;;;;;;;33.33;21.98;;;;;;;;;;5009953;28;20483;-76
2023/05/17 06:21:39;;;;;;;33.22;22.67;;;;;;;;;;5019473;28;20052;-76
2023/05/17 06:24:04;;;;;;;38.03;22.95;;;;;;;;;;5017804;28;20525;-76
2023/05/17 06:26:30;;;;;;;32.90;21.60;;;;;;;;;;5018181;28;20052;-76
2023/05/17 06:28:55;;;;;;;32.22;20.75;;;;;;;;;;5018598;28;20037;-76
2023/05/17 06:31:21;;;;;;;35.78;20.98;;;;;;;;;;5018634;28;20018;-78
2023/05/17 06:33:46;;;;;;;28.30;21.03;;;;;;;;;;5019216;28;20028;-78
2023/05/17 06:36:11;;;;;;;30.97;20.80;;;;;;;;;;5018929;28;20017;-76
2023/05/17 06:38:36;;;;;;;33.43;20.73;;;;;;;;;;5019051;28;20278;-76
2023/05/17 06:41:02;;;;;;;30.95;19.80;;;;;;;;;;5019386;28;20849;-77
2023/05/17 06:43:27;;;;;;;31.67;20.45;;;;;;;;;;5019251;28;20109;-74
2023/05/17 06:45:52;;;;;;;31.10;19.70;;;;;;;;;;5023534;28;20025;-75
2023/05/17 06:48:17;;;;;;;32.42;19.73;;;;;;;;;;5022887;28;20044;-77
2023/05/17 06:50:43;;;;;;;31.63;20.88;;;;;;;;;;5019630;28;20017;-76
2023/05/17 06:53:08;;;;;;;27.92;19.95;;;;;;;;;;5014553;28;20022;-77
2023/05/17 06:55:33;;;;;;;31.55;19.30;;;;;;;;;;5020821;28;20022;-76
2023/05/17 06:57:59;;;;;;;25.38;18.30;;;;;;;;;;5021132;28;20031;-76
2023/05/17 07:00:24;;;;;;;23.17;17.13;;;;;;;;;;5021278;28;20024;-76
2023/05/17 07:02:50;;;;;;;28.60;17.90;;;;;;;;;;5021157;28;20377;-77
2023/05/17 07:05:15;;;;;;;24.00;17.13;;;;;;;;;;5021064;28;20022;-77
2023/05/17 07:07:40;;;;;;;24.90;17.70;;;;;;;;;;5021340;28;20783;-76
2023/05/17 07:10:06;;;;;;;26.52;20.13;;;;;;;;;;5020736;28;20037;-77
2023/05/17 07:12:31;;;;;;;25.55;19.13;;;;;;;;;;5020772;28;20033;-76
2023/05/17 07:14:58;;;;;;;28.50;20.75;;;;;;;;;;5020479;28;20026;-77
2023/05/17 07:17:23;;;;;;;31.52;21.05;;;;;;;;;;5021082;28;20479;-76
2023/05/17 07:19:49;;;;;;;28.05;19.42;;;;;;;;;;5020537;28;20087;-76
2023/05/17 07:22:18;;;;;;;33.30;21.80;;;;;;;;;;5020887;28;20172;-76
2023/05/17 07:24:43;;;;;;;32.80;19.87;;;;;;;;;;5021041;28;20091;-78
2023/05/17 07:27:09;;;;;;;29.73;19.88;;;;;;;;;;5020277;28;20053;-76
2023/05/17 07:29:34;;;;;;;30.80;19.80;;;;;;;;;;5020861;28;20496;-76
2023/05/17 07:31:59;;;;;;;31.05;19.13;;;;;;;;;;5020321;28;20272;-76
2023/05/17 07:34:25;;;;;;;30.50;18.45;;;;;;;;;;5020545;28;20029;-78
2023/05/17 07:36:50;;;;;;;26.02;17.85;;;;;;;;;;5020324;28;20096;-76
2023/05/17 07:39:15;;;;;;;31.83;17.27;;;;;;;;;;5020490;28;20500;-76
2023/05/17 07:41:41;;;;;;;25.35;16.83;;;;;;;;;;5020469;28;20017;-77
2023/05/17 07:44:06;;;;;;;22.65;15.18;;;;;;;;;;5020198;28;20068;-77
2023/05/17 07:46:31;;;;;;;25.77;17.27;;;;;;;;;;5021171;28;20060;-76
2023/05/17 07:48:57;;;;;;;24.90;16.17;;;;;;;;;;5019711;28;20120;-76
2023/05/17 07:51:22;;;;;;;26.30;17.92;;;;;;;;;;5020650;28;20024;-76
2023/05/17 07:53:47;;;;;;;28.42;16.42;;;;;;;;;;5019800;28;20025;-76
2023/05/17 07:56:13;;;;;;;25.63;15.20;;;;;;;;;;5020312;28;20113;-76
2023/05/17 07:58:38;;;;;;;24.40;16.38;;;;;;;;;;5020074;28;20017;-76
2023/05/17 08:01:03;;;;;;;25.75;16.60;;;;;;;;;;5019786;28;20103;-77
2023/05/17 08:03:29;;;;;;;25.60;16.33;;;;;;;;;;5020519;28;20446;-76
2023/05/17 08:05:54;;;;;;;23.67;17.63;;;;;;;;;;5019868;28;20021;-76
2023/05/17 08:08:20;;;;;;;18.35;15.85;;;;;;;;;;5020329;28;20492;-76
2023/05/17 08:10:45;;;;;;;23.30;15.45;;;;;;;;;;5019529;28;20029;-77
2023/05/17 08:13:11;;;;;;;22.48;15.95;;;;;;;;;;5019996;28;20025;-76
2023/05/17 08:15:36;;;;;;;27.95;16.80;;;;;;;;;;5019723;28;20025;-77
2023/05/17 08:18:01;;;;;;;21.63;15.43;;;;;;;;;;5019846;28;20737;-76
2023/05/17 08:20:27;;;;;;;22.77;15.20;;;;;;;;;;5019461;28;20032;-76
2023/05/17 08:22:52;;;;;;;17.60;14.40;;;;;;;;;;5019454;28;20310;-76
2023/05/17 08:25:18;;;;;;;29.17;15.68;;;;;;;;;;5020082;28;20018;-77
2023/05/17 08:27:44;;;;;;;19.40;15.30;;;;;;;;;;5018949;28;20045;-77
2023/05/17 08:30:10;;;;;;;22.63;15.52;;;;;;;;;;5019800;28;20827;-78
2023/05/17 08:32:35;;;;;;;19.58;14.75;;;;;;;;;;5019346;28;20048;-76
2023/05/17 08:35:01;;;;;;;21.02;13.32;;;;;;;;;;5013972;28;20483;-77
2023/05/17 08:37:26;;;;;;;18.88;12.88;;;;;;;;;;5018450;28;20041;-76
2023/05/17 08:39:51;;;;;;;14.93;11.80;;;;;;;;;;5018453;28;20091;-76
2023/05/17 08:42:20;;;;;;;21.02;12.18;;;;;;;;;;5019653;28;20108;-77
2023/05/17 08:44:46;;;;;;;29.15;12.65;;;;;;;;;;5019129;28;20074;-77
2023/05/17 08:47:11;;;;;;;20.20;13.27;;;;;;;;;;5019292;28;20497;-76
2023/05/17 08:49:37;;;;;;;27.17;17.95;;;;;;;;;;5018808;28;20030;-77
2023/05/17 08:52:08;;;;;;;23.20;16.27;;;;;;;;;;5019367;28;20390;-76
2023/05/17 08:54:34;;;;;;;21.45;15.88;;;;;;;;;;5018546;28;20469;-76
2023/05/17 08:57:03;;;;;;;21.00;15.38;;;;;;;;;;5019187;28;20475;-76
2023/05/17 08:59:32;;;;;;;20.83;16.60;;;;;;;;;;5018970;28;20078;-76
2023/05/17 09:01:57;;;;;;;;;;;;;;;;;;5019047;28;20030;-76
2023/05/17 09:04:23;;;;;;;26.30;16.83;;;;;;;;;;5019242;28;19966;-76
2023/05/17 09:06:49;;;;;;;19.67;16.67;;;;;;;;;;5017819;28;20036;-76
2023/05/17 09:09:14;;;;;;;19.42;15.85;;;;;;;;;;5018797;28;20471;-76
2023/05/17 09:11:40;;;;;;;30.20;20.00;;;;;;;;;;5018775;28;20479;-76
2023/05/17 09:14:06;;;;;;;25.25;18.25;;;;;;;;;;5016639;28;20055;-76
2023/05/17 09:16:35;;;;;;;25.33;17.13;;;;;;;;;;5013141;28;20041;-76
2023/05/17 09:19:02;;;;;;;26.95;17.00;;;;;;;;;;5010985;28;20640;-76
2023/05/17 09:21:29;;;;;;;34.08;24.90;;;;;;;;;;5010902;28;20033;-76
2023/05/17 09:23:55;;;;;;;70.70;43.70;;;;;;;;;;5015425;28;20431;-76
2023/05/17 09:26:21;;;;;;;27.60;14.30;;;;;;;;;;5018658;28;20022;-76
2023/05/17 09:28:47;;;;;;;22.63;12.75;;;;;;;;;;5016681;28;20025;-78
2023/05/17 09:31:15;;;;;;;17.65;13.07;;;;;;;;;;5011849;28;20032;-76
2023/05/17 09:33:43;;;;;;;24.20;12.57;;;;;;;;;;5007129;28;20033;-77
2023/05/17 09:36:19;;;;;;;22.77;13.25;;;;;;;;;;5013890;28;20487;-75
2023/05/17 09:39:03;;;;;;;22.90;13.90;;;;;;;;;;5015475;28;20041;-76
2023/05/17 09:41:32;;;;;;;13.77;11.50;;;;;;;;;;5018915;28;20127;-75
2023/05/17 09:44:00;;;;;;;19.17;11.20;;;;;;;;;;5019652;28;20029;-77
2023/05/17 09:46:26;;;;;;;14.93;9.93;;;;;;;;;;5019728;28;20025;-76
2023/05/17 09:48:53;;;;;;;19.60;11.38;;;;;;;;;;5018983;28;20035;-78
2023/05/17 09:51:18;;;;;;;17.40;12.30;;;;;;;;;;5020087;28;20022;-76
2023/05/17 09:53:44;;;;;;;22.98;11.80;;;;;;;;;;5015658;28;20025;-76
2023/05/17 09:56:09;;;;;;;20.13;11.50;;;;;;;;;;5020616;28;20071;-76
2023/05/17 09:58:36;;;;;;;16.95;12.63;;;;;;;;;;5019504;28;20100;-74
2023/05/17 10:01:02;;;;;;;20.17;12.27;;;;;;;;;;5022089;28;20109;-75
2023/05/17 10:03:35;;;;;;;26.40;15.90;;;;;;;;;;5014564;28;20107;-76
2023/05/17 10:06:04;;;;;;;23.40;14.88;;;;;;;;;;5014300;28;20033;-76
2023/05/17 10:08:30;;;;;;;25.65;15.02;;;;;;;;;;5016652;28;20033;-76
2023/05/17 10:10:59;;;;;;;25.17;15.68;;;;;;;;;;5018778;28;20032;-75
2023/05/17 10:13:28;;;;;;;33.05;16.33;;;;;;;;;;5018937;28;20037;-75
2023/05/17 10:15:54;;;;;;;34.80;17.88;;;;;;;;;;5016836;28;20091;-76
2023/05/17 10:18:19;;;;;;;33.35;16.17;;;;;;;;;;5013049;28;20033;-76
2023/05/17 10:20:46;;;;;;;30.80;16.70;;;;;;;;;;5002820;28;20112;-76
2023/05/17 10:23:12;;;;;;;26.90;16.08;;;;;;;;;;5016700;28;20025;-75
2023/05/17 10:25:37;;;;;;;36.05;17.75;;;;;;;;;;5017627;28;20415;-78
2023/05/17 10:28:05;;;;;;;24.42;15.70;;;;;;;;;;5018365;28;20057;-76
2023/05/17 10:30:30;;;;;;;29.75;17.27;;;;;;;;;;5019128;28;20868;-76
2023/05/17 10:32:55;;;;;;;30.10;16.20;;;;;;;;;;5019082;28;20136;-76
2023/05/17 10:35:21;;;;;;;26.23;17.23;;;;;;;;;;5019459;28;20635;-76
2023/05/17 10:37:47;;;;;;;27.92;15.30;;;;;;;;;;5018995;28;20040;-76
2023/05/17 10:40:12;;;;;;;24.92;14.82;;;;;;;;;;5019630;28;20087;-75
2023/05/17 10:42:50;;;;;;;22.13;13.95;;;;;;;;;;5015847;28;20100;-75
2023/05/17 10:45:15;;;;;;;22.10;13.52;;;;;;;;;;5013666;28;20025;-76
2023/05/17 10:47:41;;;;;;;19.17;12.93;;;;;;;;;;5018902;28;20020;-76
2023/05/17 10:50:13;;;;;;;19.33;12.85;;;;;;;;;;5018995;28;20037;-77
2023/05/17 10:52:45;;;;;;;17.92;11.88;;;;;;;;;;5019383;28;20032;-77
2023/05/17 10:55:10;;;;;;;20.70;11.68;;;;;;;;;;5018892;28;20060;-76
2023/05/17 10:57:37;;;;;;;15.35;11.13;;;;;;;;;;5019040;28;20476;-75
2023/05/17 11:00:05;;;;;;;14.63;10.25;;;;;;;;;;5018638;28;20022;-76
2023/05/17 11:02:30;;;;;;;18.97;11.20;;;;;;;;;;5034046;28;20025;-74
2023/05/17 11:04:56;;;;;;;21.02;11.70;;;;;;;;;;5004636;28;20288;-77
2023/05/17 11:07:26;;;;;;;15.20;10.55;;;;;;;;;;5019230;28;20511;-75
2023/05/17 11:09:55;;;;;;;14.15;10.25;;;;;;;;;;5019314;28;20407;-75
2023/05/17 11:12:27;;;;;;;15.63;9.27;;;;;;;;;;5018250;28;20069;-76
2023/05/17 11:14:53;;;;;;;13.48;8.07;;;;;;;;;;5018728;28;20677;-75
2023/05/17 11:17:20;;;;;;;10.30;6.80;;;;;;;;;;5018142;28;20021;-75
2023/05/17 11:20:10;;;;;;;13.20;8.90;;;;;;;;;;5018782;28;20036;-74
2023/05/17 11:22:37;;;;;;;14.88;8.90;;;;;;;;;;5018326;28;20033;-74
2023/05/17 11:25:05;;;;;;;13.23;8.70;;;;;;;;;;5018074;28;20037;-75
2023/05/17 11:27:35;;;;;;;12.15;8.27;;;;;;;;;;5018716;28;20045;-75
2023/05/17 11:30:06;;;;;;;14.57;10.13;;;;;;;;;;5015348;28;20836;-76
2023/05/17 11:32:31;;;;;;;14.73;10.50;;;;;;;;;;5018164;28;20555;-75
2023/05/17 11:35:00;;;;;;;17.75;10.25;;;;;;;;;;5021826;28;20101;-76
2023/05/17 11:37:26;;;;;;;14.00;10.73;;;;;;;;;;5022518;28;20357;-76
2023/05/17 11:40:01;;;;;;;15.57;10.40;;;;;;;;;;5020910;28;20030;-75
2023/05/17 11:42:27;;;;;;;12.77;10.15;;;;;;;;;;5021601;28;20029;-75
2023/05/17 11:44:55;;;;;;;14.18;10.20;;;;;;;;;;5021760;28;20048;-76
2023/05/17 11:47:20;;;;;;;16.45;10.15;;;;;;;;;;5021647;28;20028;-76
2023/05/17 11:49:50;;;;;;;18.92;9.68;;;;;;;;;;5021782;28;20502;-85
2023/05/17 11:52:15;;;;;;;;;;;;;;;;;;5022155;28;20017;-75
2023/05/17 11:54:41;;;;;;;19.63;10.00;;;;;;;;;;5023659;28;20652;-75
2023/05/17 11:57:07;;;;;;;15.70;11.25;;;;;;;;;;5022244;28;20044;-74
2023/05/17 11:59:38;;;;;;;13.35;10.10;;;;;;;;;;5021523;28;20124;-77
2023/05/17 12:02:03;;;;;;;16.77;9.40;;;;;;;;;;5015318;28;20025;-75
2023/05/17 12:04:28;;;;;;;11.20;8.57;;;;;;;;;;5014216;28;20510;-74
2023/05/17 12:06:54;;;;;;;16.63;8.38;;;;;;;;;;5021517;28;20391;-76
2023/05/17 12:09:21;;;;;;;15.77;8.75;;;;;;;;;;5015245;28;20389;-74
2023/05/17 12:11:46;;;;;;;12.82;7.70;;;;;;;;;;5021628;28;20053;-74
2023/05/17 12:14:19;;;;;;;13.40;8.20;;;;;;;;;;5015576;28;20057;-75
2023/05/17 12:16:47;;;;;;;11.40;8.40;;;;;;;;;;5018209;28;20033;-75
2023/05/17 12:19:17;;;;;;;14.48;8.38;;;;;;;;;;5020027;28;20048;-74
2023/05/17 12:21:42;;;;;;;11.38;8.32;;;;;;;;;;5019397;28;20044;-74
2023/05/17 12:24:07;;;;;;;15.17;9.07;;;;;;;;;;5021960;28;20033;-75
2023/05/17 12:26:32;;;;;;;13.43;8.18;;;;;;;;;;5020708;28;20259;-75
2023/05/17 12:28:59;;;;;;;12.13;7.20;;;;;;;;;;5020320;28;20852;-76
2023/05/17 12:31:27;;;;;;;14.02;7.47;;;;;;;;;;5020158;28;20287;-74
2023/05/17 12:33:53;;;;;;;17.13;7.53;;;;;;;;;;5019946;28;20025;-74
2023/05/17 12:36:18;;;;;;;13.80;7.13;;;;;;;;;;5021047;28;20441;-74
2023/05/17 12:38:45;;;;;;;11.73;7.20;;;;;;;;;;5019216;28;20700;-74
2023/05/17 12:41:11;;;;;;;9.02;6.43;;;;;;;;;;5019981;28;20399;-74
2023/05/17 12:43:37;;;;;;;10.00;6.65;;;;;;;;;;5019281;28;20029;-74
2023/05/17 12:46:29;;;;;;;13.10;6.75;;;;;;;;;;5020170;28;20021;-74
2023/05/17 12:48:54;;;;;;;11.73;6.38;;;;;;;;;;5018649;28;20045;-75
2023/05/17 12:51:20;;;;;;;10.82;6.43;;;;;;;;;;5019587;28;20025;-74
2023/05/17 12:53:49;;;;;;;10.20;6.13;;;;;;;;;;5020106;28;20026;-75
2023/05/17 12:56:18;;;;;;;13.13;5.43;;;;;;;;;;5019408;28;20034;-76
2023/05/17 12:58:44;;;;;;;12.10;5.05;;;;;;;;;;5020334;28;20021;-76
2023/05/17 13:01:13;;;;;;;9.05;5.13;;;;;;;;;;5019320;28;20040;-78
2023/05/17 13:03:39;;;;;;;9.75;5.25;;;;;;;;;;5020194;28;20029;-78
2023/05/17 13:06:08;;;;;;;9.52;5.35;;;;;;;;;;5019662;28;20030;-77
2023/05/17 13:08:34;;;;;;;9.18;6.03;;;;;;;;;;5010994;28;20037;-79
2023/05/17 13:11:04;;;;;;;11.38;6.32;;;;;;;;;;5021271;28;20799;-80
2023/05/17 13:13:31;;;;;;;11.18;5.15;;;;;;;;;;5018886;28;20729;-77
2023/05/17 13:15:57;;;;;;;7.78;5.35;;;;;;;;;;5019947;28;20037;-77
2023/05/17 13:18:23;;;;;;;9.73;4.93;;;;;;;;;;5018867;28;20060;-79
2023/05/17 13:20:50;;;;;;;7.78;5.20;;;;;;;;;;5019685;28;20025;-77
2023/05/17 13:23:15;;;;;;;9.35;4.95;;;;;;;;;;5019197;28;20037;-74
2023/05/17 13:25:40;;;;;;;12.07;5.07;;;;;;;;;;5019072;28;20022;-75
2023/05/17 13:28:06;;;;;;;8.10;5.45;;;;;;;;;;5019088;28;20085;-75
2023/05/17 13:30:31;;;;;;;10.73;5.50;;;;;;;;;;5018722;28;20020;-75
2023/05/17 13:32:56;;;;;;;13.27;5.15;;;;;;;;;;5019701;28;20025;-77
2023/05/17 13:35:22;;;;;;;10.75;5.13;;;;;;;;;;5018597;28;20559;-74
2023/05/17 13:37:47;;;;;;;11.50;5.30;;;;;;;;;;5019771;28;20025;-74
2023/05/17 13:40:13;;;;;;;8.73;5.25;;;;;;;;;;5018473;28;20470;-75
2023/05/17 13:42:38;;;;;;;9.57;5.22;;;;;;;;;;5019104;28;20495;-75
2023/05/17 13:45:03;;;;;;;9.98;5.32;;;;;;;;;;5018639;28;20021;-74
2023/05/17 13:47:30;;;;;;;14.85;5.82;;;;;;;;;;5018577;28;20077;-74
2023/05/17 13:49:55;;;;;;;10.95;5.90;;;;;;;;;;5019550;28;20033;-74
2023/05/17 13:52:21;;;;;;;11.05;5.10;;;;;;;;;;5017649;28;20494;-74
2023/05/17 13:54:47;;;;;;;11.90;6.25;;;;;;;;;;5019203;28;20488;-74
2023/05/17 13:57:12;;;;;;;9.80;5.70;;;;;;;;;;5018006;28;20072;-74
2023/05/17 13:59:38;;;;;;;13.88;5.68;;;;;;;;;;5019147;28;20018;-75
2023/05/17 14:02:03;;;;;;;7.80;6.38;;;;;;;;;;5018746;28;20014;-73
2023/05/17 14:04:28;;;;;;;10.65;6.63;;;;;;;;;;5018707;28;20400;-74
2023/05/17 14:06:54;;;;;;;10.75;6.03;;;;;;;;;;5018720;28;20010;-74
2023/05/17 14:09:20;;;;;;;10.38;6.32;;;;;;;;;;5017908;28;20040;-74
2023/05/17 14:11:45;;;;;;;13.98;5.90;;;;;;;;;;5019417;28;20118;-74
2023/05/17 14:14:11;;;;;;;13.77;6.57;;;;;;;;;;5017307;28;20105;-74
2023/05/17 14:16:36;;;;;;;9.45;6.22;;;;;;;;;;5018256;28;20491;-74